Time;durP1;ratioP1;P1;durP2;ratioP2;P2;SDS_P1;SDS_P2;PMS_P1;PMS_P2;Temp;Humidity;BMP_temperature;BMP_pressure;BME280_temperature;BME280_humidity;BME280_pressure;Samples;Min_cycle;Max_cycle;Signal;HPM_P1;HPM_P2
2023/03/29 00:00:58;;;;;;;3.35;1.77;;;7.60;99.90;;;;;;5041664;28;20025;-42
2023/03/29 00:03:29;;;;;;;2.30;1.80;;;7.50;99.90;;;;;;5042517;28;20021;-43
2023/03/29 00:06:04;;;;;;;2.40;2.00;;;7.50;99.90;;;;;;5042553;28;20050;-43
2023/03/29 00:08:32;;;;;;;3.80;2.13;;;7.50;99.90;;;;;;5041775;28;20021;-42
2023/03/29 00:10:59;;;;;;;3.45;2.00;;;7.50;99.90;;;;;;5042081;28;20474;-43
2023/03/29 00:13:26;;;;;;;2.50;2.08;;;7.50;99.90;;;;;;5041616;28;20143;-42
2023/03/29 00:15:53;;;;;;;2.90;1.80;;;7.50;99.90;;;;;;5041548;28;20040;-42
2023/03/29 00:18:22;;;;;;;4.93;2.35;;;7.50;99.90;;;;;;5041493;28;20025;-44
2023/03/29 00:21:01;;;;;;;2.88;1.80;;;7.50;99.90;;;;;;5042055;28;20188;-43
2023/03/29 00:23:26;;;;;;;4.15;2.08;;;7.50;99.90;;;;;;5040644;28;20032;-42
2023/03/29 00:25:53;;;;;;;2.38;2.00;;;7.50;99.90;;;;;;5041484;28;20404;-43
2023/03/29 00:28:19;;;;;;;2.20;1.80;;;7.50;99.90;;;;;;5040571;28;20052;-42
2023/03/29 00:30:45;;;;;;;4.28;2.47;;;7.60;99.90;;;;;;5041117;28;20112;-43
2023/03/29 00:33:11;;;;;;;2.30;1.80;;;7.60;99.90;;;;;;5041145;28;20063;-42
2023/03/29 00:35:38;;;;;;;3.15;2.15;;;7.60;99.90;;;;;;5041863;28;20132;-42
2023/03/29 00:38:05;;;;;;;2.83;2.22;;;7.60;99.90;;;;;;5040487;28;20033;-43
2023/03/29 00:40:31;;;;;;;2.95;2.00;;;7.60;99.90;;;;;;5040676;28;20078;-42
2023/03/29 00:42:57;;;;;;;3.20;1.90;;;7.60;99.90;;;;;;5041264;28;20059;-43
2023/03/29 00:45:30;;;;;;;2.53;1.75;;;7.60;99.90;;;;;;5040987;28;20053;-42
2023/03/29 00:48:01;;;;;;;3.85;2.03;;;7.60;99.90;;;;;;5041546;28;20063;-42
2023/03/29 00:50:44;;;;;;;3.70;1.88;;;7.60;99.90;;;;;;5040175;28;20067;-42
2023/03/29 00:53:14;;;;;;;2.05;1.80;;;7.60;99.90;;;;;;5041235;28;20036;-43
2023/03/29 00:55:52;;;;;;;2.78;2.08;;;7.60;99.90;;;;;;5041098;28;20131;-43
2023/03/29 00:58:30;;;;;;;2.45;1.83;;;7.60;99.90;;;;;;5040198;28;20048;-42
2023/03/29 01:01:02;;;;;;;3.30;1.88;;;7.60;99.90;;;;;;5041458;28;20060;-44
2023/03/29 01:03:34;;;;;;;3.55;1.85;;;7.60;99.90;;;;;;5041582;28;20043;-43
2023/03/29 01:06:04;;;;;;;3.07;2.30;;;7.60;99.90;;;;;;5040283;28;20033;-43
2023/03/29 01:08:53;;;;;;;2.88;2.30;;;7.60;99.90;;;;;;5041468;28;20598;-43
2023/03/29 01:11:31;;;;;;;2.08;1.77;;;7.70;99.90;;;;;;5039422;28;20083;-43
2023/03/29 01:14:17;;;;;;;2.22;2.03;;;7.70;99.90;;;;;;5041533;28;20032;-43
2023/03/29 01:16:44;;;;;;;2.38;2.17;;;7.70;99.90;;;;;;5040184;28;20063;-43
2023/03/29 01:19:14;;;;;;;1.90;1.75;;;7.70;99.90;;;;;;5040860;28;20029;-42
2023/03/29 01:22:00;;;;;;;2.90;1.67;;;7.70;99.90;;;;;;5041927;28;20033;-43
2023/03/29 01:24:49;;;;;;;1.60;1.50;;;7.70;99.90;;;;;;5041063;28;20036;-43
2023/03/29 01:27:54;;;;;;;2.63;1.98;;;7.70;99.90;;;;;;5036517;28;20036;-43
2023/03/29 01:30:32;;;;;;;3.45;1.90;;;7.70;99.90;;;;;;5039897;28;20127;-42
2023/03/29 01:33:01;;;;;;;2.95;1.80;;;7.70;99.90;;;;;;5030441;28;20055;-43
2023/03/29 01:35:40;;;;;;;4.57;2.53;;;7.70;99.90;;;;;;5040555;28;20658;-42
2023/03/29 01:38:12;;;;;;;3.15;1.88;;;7.70;99.90;;;;;;5029616;28;20047;-43
2023/03/29 01:40:38;;;;;;;2.15;1.85;;;7.70;99.90;;;;;;5039681;28;20116;-42
2023/03/29 01:43:16;;;;;;;3.35;2.15;;;7.70;99.90;;;;;;5039878;28;20036;-42
2023/03/29 01:46:06;;;;;;;3.55;2.83;;;7.70;99.90;;;;;;5039483;28;20603;-42
2023/03/29 01:48:40;;;;;;;2.78;2.03;;;7.80;99.90;;;;;;5029837;28;20091;-42
2023/03/29 01:51:15;;;;;;;2.75;2.55;;;7.80;99.90;;;;;;5039620;28;20028;-42
2023/03/29 01:54:15;;;;;;;3.30;2.20;;;7.80;99.90;;;;;;5040091;28;20029;-42
2023/03/29 01:56:44;;;;;;;1.67;1.58;;;7.80;99.90;;;;;;5040790;28;20033;-42
2023/03/29 01:59:16;;;;;;;2.22;1.85;;;7.80;99.90;;;;;;5040136;28;20029;-42
2023/03/29 02:01:47;;;;;;;3.05;1.92;;;7.80;99.90;;;;;;5039443;28;20568;-43
2023/03/29 02:04:24;;;;;;;2.42;1.92;;;7.80;99.90;;;;;;5039472;28;20029;-43
2023/03/29 02:06:53;;;;;;;2.33;1.85;;;7.80;99.90;;;;;;5039777;28;20552;-43
2023/03/29 02:09:19;;;;;;;2.30;2.00;;;7.90;99.90;;;;;;5038906;28;20463;-42
2023/03/29 02:11:46;;;;;;;5.80;2.33;;;7.90;99.90;;;;;;5039641;28;20036;-41
2023/03/29 02:14:12;;;;;;;2.75;2.10;;;7.90;99.90;;;;;;5039931;28;20128;-43
2023/03/29 02:16:38;;;;;;;2.65;2.22;;;7.90;99.90;;;;;;5040187;28;20086;-43
2023/03/29 02:19:05;;;;;;;3.55;2.25;;;7.90;99.90;;;;;;5039604;28;20025;-43
2023/03/29 02:21:52;;;;;;;2.72;2.05;;;7.90;99.90;;;;;;5039163;28;20040;-43
2023/03/29 02:24:20;;;;;;;3.05;2.05;;;7.90;99.90;;;;;;5039215;28;20048;-43
2023/03/29 02:26:46;;;;;;;3.42;2.10;;;7.90;99.90;;;;;;5040441;28;20065;-42
2023/03/29 02:29:13;;;;;;;2.75;2.38;;;7.90;99.90;;;;;;5039015;28;20481;-42
2023/03/29 02:31:48;;;;;;;2.58;1.75;;;7.90;99.90;;;;;;5040907;28;20063;-43
2023/03/29 02:34:42;;;;;;;2.70;1.85;;;7.90;99.90;;;;;;5038927;28;20078;-43
2023/03/29 02:37:14;;;;;;;1.90;1.70;;;7.90;99.90;;;;;;5029208;28;20718;-44
2023/03/29 02:39:40;;;;;;;3.53;2.30;;;7.90;99.90;;;;;;5036631;28;20039;-42
2023/03/29 02:42:07;;;;;;;2.90;2.05;;;7.90;99.90;;;;;;5040354;28;20056;-43
2023/03/29 02:44:38;;;;;;;3.10;1.98;;;7.90;99.90;;;;;;5038835;28;20064;-42
2023/03/29 02:47:15;;;;;;;1.88;1.77;;;7.90;99.90;;;;;;5039420;28;20518;-43
2023/03/29 02:49:42;;;;;;;2.17;1.80;;;7.90;99.90;;;;;;5039456;28;20104;-42
2023/03/29 02:52:12;;;;;;;2.70;2.33;;;7.90;99.90;;;;;;5040164;28;20017;-42
2023/03/29 02:54:41;;;;;;;2.60;2.05;;;7.90;99.90;;;;;;5043266;28;20027;-43
2023/03/29 02:57:09;;;;;;;2.67;1.92;;;7.90;99.90;;;;;;5042764;28;20029;-42
2023/03/29 02:59:35;;;;;;;2.72;2.22;;;7.90;99.90;;;;;;5043106;28;20056;-42
2023/03/29 03:02:01;;;;;;;2.50;2.20;;;7.80;99.90;;;;;;5042941;28;20029;-42
2023/03/29 03:04:28;;;;;;;2.50;1.90;;;7.80;99.90;;;;;;5043723;28;20079;-43
2023/03/29 03:06:54;;;;;;;2.38;2.17;;;7.80;99.90;;;;;;5043500;28;20033;-43
2023/03/29 03:09:19;;;;;;;4.50;2.03;;;7.80;99.90;;;;;;5042387;28;20021;-43
2023/03/29 03:11:45;;;;;;;2.35;2.00;;;7.80;99.90;;;;;;5042772;28;20064;-43
2023/03/29 03:14:13;;;;;;;3.00;2.40;;;7.70;99.90;;;;;;5042513;28;20035;-42
2023/03/29 03:16:39;;;;;;;2.67;2.13;;;7.70;99.90;;;;;;5043609;28;20039;-43
2023/03/29 03:19:06;;;;;;;3.40;2.15;;;7.70;99.90;;;;;;5042073;28;20025;-43
2023/03/29 03:21:32;;;;;;;3.17;2.70;;;7.70;99.90;;;;;;5043203;28;20056;-43
2023/03/29 03:23:58;;;;;;;2.65;2.13;;;7.70;99.90;;;;;;5043037;28;20025;-43
2023/03/29 03:26:24;;;;;;;2.25;2.05;;;7.70;99.90;;;;;;5041961;28;20492;-44
2023/03/29 03:28:50;;;;;;;5.10;2.30;;;7.70;99.90;;;;;;5042923;28;20501;-44
2023/03/29 03:31:16;;;;;;;2.95;1.98;;;7.70;99.90;;;;;;5042192;28;20037;-43
2023/03/29 03:33:42;;;;;;;2.67;2.47;;;7.70;99.90;;;;;;5043039;28;20028;-42
2023/03/29 03:36:09;;;;;;;2.63;2.10;;;7.70;99.90;;;;;;5042447;28;20032;-43
2023/03/29 03:38:35;;;;;;;2.95;2.28;;;7.70;99.90;;;;;;5042359;28;20082;-43
2023/03/29 03:41:01;;;;;;;2.97;2.47;;;7.80;99.90;;;;;;5041483;28;20029;-42
2023/03/29 03:43:27;;;;;;;2.92;2.20;;;7.80;99.90;;;;;;5042678;28;20031;-43
2023/03/29 03:45:53;;;;;;;3.30;2.15;;;7.80;99.90;;;;;;5041371;28;20060;-42
2023/03/29 03:48:19;;;;;;;2.42;2.22;;;7.80;99.90;;;;;;5041835;28;20037;-43
2023/03/29 03:50:54;;;;;;;2.65;2.22;;;7.80;99.90;;;;;;5041757;28;20674;-43
2023/03/29 03:53:21;;;;;;;3.08;2.50;;;7.80;99.90;;;;;;5041201;28;20040;-42
2023/03/29 03:55:52;;;;;;;4.28;2.55;;;7.80;99.90;;;;;;5041872;28;20886;-42
2023/03/29 03:58:18;;;;;;;2.72;2.33;;;7.80;99.90;;;;;;5041859;28;20025;-42
2023/03/29 04:00:46;;;;;;;4.22;2.25;;;7.80;99.90;;;;;;5041486;28;20086;-44
2023/03/29 04:03:12;;;;;;;2.90;2.40;;;7.80;99.90;;;;;;5041677;28;20036;-42
2023/03/29 04:05:43;;;;;;;2.28;2.08;;;7.90;99.90;;;;;;5042685;28;20029;-42
2023/03/29 04:08:16;;;;;;;3.65;2.35;;;7.90;99.90;;;;;;5041249;28;20029;-43
2023/03/29 04:10:44;;;;;;;2.97;2.55;;;7.90;99.90;;;;;;5041981;28;20017;-43
2023/03/29 04:13:10;;;;;;;2.17;1.98;;;7.90;99.90;;;;;;5030191;28;20468;-42
2023/03/29 04:15:40;;;;;;;4.60;2.67;;;7.90;99.90;;;;;;5041531;28;20021;-43
2023/03/29 04:18:06;;;;;;;3.90;2.42;;;7.90;99.90;;;;;;5040714;28;20445;-42
2023/03/29 04:20:31;;;;;;;3.90;2.20;;;7.90;99.90;;;;;;5042175;28;20817;-43
2023/03/29 04:22:57;;;;;;;3.47;2.10;;;7.90;99.90;;;;;;5041374;28;20021;-43
2023/03/29 04:25:22;;;;;;;2.95;2.22;;;7.90;99.90;;;;;;5041403;28;20049;-43
2023/03/29 04:27:49;;;;;;;3.05;2.30;;;7.90;99.90;;;;;;5041240;28;20044;-43
2023/03/29 04:30:15;;;;;;;3.50;2.65;;;8.00;99.90;;;;;;5041030;28;20037;-43
2023/03/29 04:32:41;;;;;;;4.10;2.45;;;7.90;99.90;;;;;;5042061;28;20025;-44
2023/03/29 04:35:08;;;;;;;2.75;2.40;;;8.00;99.90;;;;;;5040653;28;20114;-42
2023/03/29 04:37:34;;;;;;;3.50;2.40;;;8.00;99.90;;;;;;5042248;28;20024;-42
2023/03/29 04:39:59;;;;;;;4.25;2.47;;;8.00;99.90;;;;;;5041427;28;20032;-42
2023/03/29 04:42:28;;;;;;;3.53;1.95;;;8.00;99.90;;;;;;5040940;28;20017;-42
2023/03/29 04:44:54;;;;;;;2.20;2.00;;;8.00;99.90;;;;;;5041580;28;20110;-43
2023/03/29 04:47:23;;;;;;;3.40;2.58;;;8.00;99.90;;;;;;5040644;28;20111;-43
2023/03/29 04:49:48;;;;;;;2.25;2.05;;;8.00;99.90;;;;;;5041283;28;20079;-43
2023/03/29 04:52:14;;;;;;;3.28;2.55;;;8.00;99.90;;;;;;5041032;28;20032;-43
2023/03/29 04:54:39;;;;;;;4.60;2.50;;;8.00;99.90;;;;;;5041945;28;20067;-44
2023/03/29 04:57:06;;;;;;;3.33;2.33;;;8.00;99.90;;;;;;5040927;28;20032;-44
2023/03/29 04:59:32;;;;;;;3.28;2.22;;;8.00;99.90;;;;;;5042571;28;20025;-42
2023/03/29 05:01:59;;;;;;;2.22;1.85;;;8.00;99.90;;;;;;5041790;28;20637;-43
2023/03/29 05:04:27;;;;;;;2.33;2.13;;;8.00;99.90;;;;;;5040591;28;20480;-43
2023/03/29 05:06:53;;;;;;;1.95;1.80;;;8.00;99.90;;;;;;5042515;28;20202;-41
2023/03/29 05:09:18;;;;;;;2.50;2.15;;;8.00;99.90;;;;;;5040872;28;20029;-42
2023/03/29 05:11:44;;;;;;;2.53;2.33;;;8.00;99.90;;;;;;5040939;28;20103;-42
2023/03/29 05:14:10;;;;;;;3.22;1.90;;;8.00;99.90;;;;;;5041182;28;20024;-43
2023/03/29 05:16:42;;;;;;;4.63;2.38;;;8.00;99.90;;;;;;5022685;28;20583;-43
2023/03/29 05:19:08;;;;;;;;;;;8.00;99.90;;;;;;5038974;28;20559;-43
2023/03/29 05:21:34;;;;;;;3.00;2.30;;;8.10;99.90;;;;;;5041991;28;20003;-42
2023/03/29 05:24:00;;;;;;;2.30;2.10;;;8.00;99.90;;;;;;5040659;28;20071;-42
2023/03/29 05:26:26;;;;;;;2.40;2.20;;;8.10;99.90;;;;;;5039782;28;20120;-42
2023/03/29 05:28:53;;;;;;;2.17;1.98;;;8.10;99.90;;;;;;5040676;28;20053;-42
2023/03/29 05:31:21;;;;;;;3.90;2.53;;;8.10;99.90;;;;;;5039156;28;20032;-41
2023/03/29 05:33:47;;;;;;;3.83;2.20;;;8.20;99.90;;;;;;5041103;28;20044;-44
2023/03/29 05:36:15;;;;;;;3.40;2.60;;;8.10;99.90;;;;;;5040072;28;20449;-43
2023/03/29 05:38:43;;;;;;;3.22;2.47;;;8.10;99.90;;;;;;5037823;28;20016;-43
2023/03/29 05:41:09;;;;;;;3.50;2.28;;;8.20;99.90;;;;;;5039565;28;20036;-42
2023/03/29 05:43:35;;;;;;;3.97;2.42;;;8.20;99.90;;;;;;5040316;28;20025;-42
2023/03/29 05:46:01;;;;;;;3.15;2.20;;;8.20;99.90;;;;;;5039151;28;20065;-44
2023/03/29 05:48:27;;;;;;;2.03;1.77;;;8.20;99.90;;;;;;5039932;28;20025;-43
2023/03/29 05:50:55;;;;;;;2.67;1.95;;;8.20;99.90;;;;;;5039010;28;20040;-44
2023/03/29 05:53:23;;;;;;;2.55;1.95;;;8.20;99.90;;;;;;5037978;28;20336;-41
2023/03/29 05:55:50;;;;;;;2.88;2.15;;;8.30;99.90;;;;;;5037959;28;20064;-42
2023/03/29 05:58:19;;;;;;;3.33;3.00;;;8.30;99.90;;;;;;5039268;28;20080;-43
2023/03/29 06:00:48;;;;;;;4.63;2.78;;;8.30;99.90;;;;;;5039770;28;20063;-43
2023/03/29 06:03:18;;;;;;;4.75;2.90;;;8.30;99.90;;;;;;5039620;28;20025;-43
2023/03/29 06:05:55;;;;;;;3.60;2.58;;;8.30;99.90;;;;;;5039169;28;20033;-44
2023/03/29 06:08:21;;;;;;;3.55;2.45;;;8.40;99.90;;;;;;5018923;28;20029;-43
2023/03/29 06:10:47;;;;;;;3.42;2.53;;;8.40;99.90;;;;;;5033958;28;20028;-43
2023/03/29 06:13:13;;;;;;;5.30;3.42;;;8.40;99.90;;;;;;5038783;28;20032;-43
2023/03/29 06:15:39;;;;;;;5.22;3.28;;;8.40;99.90;;;;;;5038377;28;20028;-42
2023/03/29 06:18:05;;;;;;;4.40;2.50;;;8.50;99.90;;;;;;5039753;28;20059;-43
2023/03/29 06:20:31;;;;;;;3.40;2.42;;;8.50;99.90;;;;;;5039226;28;20029;-43
2023/03/29 06:22:57;;;;;;;2.83;2.17;;;8.50;99.90;;;;;;5040062;28;20029;-43
2023/03/29 06:25:23;;;;;;;3.15;2.15;;;8.60;99.90;;;;;;5039184;28;20667;-43
2023/03/29 06:27:49;;;;;;;4.45;2.63;;;8.60;99.90;;;;;;5040915;28;20477;-43
2023/03/29 06:30:15;;;;;;;6.10;3.70;;;8.70;99.90;;;;;;5043327;28;20070;-43
2023/03/29 06:32:42;;;;;;;3.90;3.05;;;8.70;99.90;;;;;;5043893;28;20132;-43
2023/03/29 06:35:08;;;;;;;4.28;2.97;;;8.80;99.90;;;;;;5042876;28;20080;-43
2023/03/29 06:37:34;;;;;;;3.65;2.63;;;8.80;99.90;;;;;;5044267;28;20037;-44
2023/03/29 06:40:00;;;;;;;3.10;2.50;;;8.90;99.90;;;;;;5043874;28;20151;-42
2023/03/29 06:42:26;;;;;;;2.85;2.28;;;8.90;99.90;;;;;;5043187;28;20025;-43
2023/03/29 06:44:52;;;;;;;3.10;2.22;;;8.90;99.90;;;;;;5037449;28;20063;-43
2023/03/29 06:47:18;;;;;;;3.30;2.42;;;9.00;99.90;;;;;;5033105;28;20206;-43
2023/03/29 06:49:43;;;;;;;3.22;2.13;;;9.00;99.90;;;;;;5031018;28;20029;-43
2023/03/29 06:52:10;;;;;;;3.00;2.53;;;9.10;99.90;;;;;;5028781;28;20482;-43
2023/03/29 06:54:35;;;;;;;2.67;2.35;;;9.10;99.90;;;;;;5030921;28;20040;-42
2023/03/29 06:57:03;;;;;;;4.72;2.47;;;9.10;99.90;;;;;;5028166;28;20032;-42
2023/03/29 06:59:29;;;;;;;3.80;2.47;;;9.10;99.90;;;;;;5031285;28;20040;-43
2023/03/29 07:01:54;;;;;;;2.80;2.35;;;9.10;99.90;;;;;;5029079;28;20025;-43
2023/03/29 07:04:22;;;;;;;4.05;2.60;;;9.10;99.90;;;;;;5029372;28;20032;-43
2023/03/29 07:06:57;;;;;;;2.67;2.47;;;9.10;99.90;;;;;;5029259;28;20021;-43
2023/03/29 07:09:25;;;;;;;3.78;2.60;;;9.10;99.90;;;;;;5030312;28;20110;-43
2023/03/29 07:11:50;;;;;;;3.78;2.35;;;9.10;99.90;;;;;;5028321;28;20059;-47
2023/03/29 07:14:16;;;;;;;3.65;3.10;;;9.20;99.90;;;;;;5029707;28;20144;-43
2023/03/29 07:16:42;;;;;;;3.67;2.40;;;9.20;99.90;;;;;;5028717;28;20139;-42
2023/03/29 07:19:09;;;;;;;4.35;2.40;;;9.20;99.90;;;;;;5030248;28;20047;-43
2023/03/29 07:21:35;;;;;;;3.35;2.08;;;9.20;99.90;;;;;;5030394;28;20056;-42
2023/03/29 07:24:05;;;;;;;5.28;2.53;;;9.30;99.90;;;;;;5029651;28;20776;-42
2023/03/29 07:26:31;;;;;;;4.05;2.58;;;9.30;99.90;;;;;;5029262;28;20052;-42
2023/03/29 07:28:57;;;;;;;2.90;2.50;;;9.30;99.90;;;;;;5028022;28;20032;-43
2023/03/29 07:31:23;;;;;;;3.72;2.53;;;9.40;99.90;;;;;;5027760;28;20021;-43
2023/03/29 07:33:51;;;;;;;4.03;2.47;;;9.50;99.90;;;;;;5029274;28;20074;-42
2023/03/29 07:36:17;;;;;;;3.17;2.50;;;9.50;99.90;;;;;;5027943;28;20055;-42
2023/03/29 07:38:42;;;;;;;3.10;2.40;;;9.60;99.90;;;;;;5027610;28;20037;-42
2023/03/29 07:41:08;;;;;;;2.97;2.53;;;9.60;99.90;;;;;;5027992;28;20048;-43
2023/03/29 07:43:33;;;;;;;2.92;2.35;;;9.70;99.90;;;;;;5029415;28;21347;-44
2023/03/29 07:46:04;;;;;;;6.05;2.53;;;9.80;99.90;;;;;;5028029;28;20059;-43
2023/03/29 07:48:31;;;;;;;4.15;2.28;;;9.80;99.90;;;;;;5029287;28;20036;-45
2023/03/29 07:50:56;;;;;;;2.85;2.22;;;9.90;99.90;;;;;;5029116;28;20163;-42
2023/03/29 07:53:23;;;;;;;3.10;2.25;;;10.00;99.90;;;;;;5028363;28;20028;-43
2023/03/29 07:55:49;;;;;;;4.57;2.40;;;10.10;99.90;;;;;;5029505;28;20029;-42
2023/03/29 07:58:15;;;;;;;3.42;2.40;;;10.20;99.90;;;;;;5028287;28;20036;-43
2023/03/29 08:00:42;;;;;;;3.85;2.50;;;10.20;99.90;;;;;;5028675;28;20021;-43
2023/03/29 08:03:11;;;;;;;3.65;2.63;;;10.30;99.90;;;;;;5027985;28;20041;-43
2023/03/29 08:05:38;;;;;;;3.03;2.30;;;10.30;99.90;;;;;;5028788;28;20041;-42
2023/03/29 08:08:04;;;;;;;3.60;2.85;;;10.40;99.90;;;;;;5027217;28;20041;-43
2023/03/29 08:10:29;;;;;;;4.70;3.15;;;10.40;99.90;;;;;;5028505;28;21739;-42
2023/03/29 08:12:55;;;;;;;3.75;2.58;;;10.40;99.90;;;;;;5027174;28;20029;-43
2023/03/29 08:15:21;;;;;;;4.53;3.15;;;10.50;99.90;;;;;;5026707;28;20041;-43
2023/03/29 08:17:49;;;;;;;4.70;2.65;;;10.50;99.90;;;;;;5028630;28;20037;-42
2023/03/29 08:20:15;;;;;;;4.70;3.00;;;10.50;99.90;;;;;;5027980;28;20399;-43
2023/03/29 08:22:41;;;;;;;3.35;2.53;;;10.50;99.90;;;;;;5029557;28;20052;-43
2023/03/29 08:25:07;;;;;;;3.05;2.67;;;10.60;99.90;;;;;;5027686;28;20110;-42
2023/03/29 08:27:33;;;;;;;4.53;2.95;;;10.60;99.90;;;;;;5027984;28;20021;-43
2023/03/29 08:29:59;;;;;;;3.42;2.72;;;10.70;99.90;;;;;;5027704;28;20025;-43
2023/03/29 08:32:25;;;;;;;4.30;3.30;;;10.70;99.90;;;;;;5027274;28;20048;-42
2023/03/29 08:34:50;;;;;;;4.63;2.97;;;10.70;99.90;;;;;;5027355;28;20108;-42
2023/03/29 08:37:16;;;;;;;3.50;2.92;;;10.80;99.90;;;;;;5027870;28;20561;-43
2023/03/29 08:39:42;;;;;;;5.05;3.10;;;10.80;99.90;;;;;;5028102;28;20128;-42
2023/03/29 08:42:30;;;;;;;5.40;3.10;;;10.80;99.90;;;;;;5025829;28;20107;-42
2023/03/29 08:45:10;;;;;;;3.33;3.03;;;10.90;99.90;;;;;;5027458;28;20054;-43
2023/03/29 08:47:42;;;;;;;3.22;2.70;;;11.00;99.90;;;;;;5029697;28;20032;-43
2023/03/29 08:50:10;;;;;;;4.18;3.10;;;11.20;99.90;;;;;;5026041;28;20029;-43
2023/03/29 08:52:50;;;;;;;6.13;4.40;;;11.30;99.90;;;;;;5028589;28;20032;-46
2023/03/29 08:55:37;;;;;;;5.97;3.85;;;11.40;99.90;;;;;;5025376;28;20056;-43
2023/03/29 08:58:06;;;;;;;5.20;4.28;;;11.50;99.90;;;;;;5028100;28;20084;-42
2023/03/29 09:00:41;;;;;;;6.18;3.97;;;11.60;99.90;;;;;;5028163;28;20033;-43
2023/03/29 09:03:20;;;;;;;7.05;4.07;;;11.70;99.90;;;;;;5026455;28;20040;-43
2023/03/29 09:05:51;;;;;;;6.13;4.03;;;11.80;99.90;;;;;;5028056;28;20041;-43
2023/03/29 09:08:21;;;;;;;8.50;4.25;;;11.80;99.90;;;;;;5027105;28;20884;-44
2023/03/29 09:11:11;;;;;;;4.65;3.53;;;11.80;99.90;;;;;;5028327;28;20025;-43
2023/03/29 09:13:55;;;;;;;7.20;4.78;;;11.80;99.90;;;;;;5026881;28;20037;-43
2023/03/29 09:16:45;;;;;;;6.70;4.80;;;11.80;99.90;;;;;;5026707;28;20087;-43
2023/03/29 09:19:30;;;;;;;9.57;5.25;;;11.80;99.90;;;;;;5026805;28;20056;-42
2023/03/29 09:22:40;;;;;;;5.15;4.15;;;11.80;99.90;;;;;;5028189;28;20153;-42
2023/03/29 09:25:20;;;;;;;7.18;4.93;;;11.90;99.90;;;;;;5008551;28;20053;-44
2023/03/29 09:27:59;;;;;;;6.63;4.82;;;11.90;99.90;;;;;;5026731;28;20039;-43
2023/03/29 09:30:33;;;;;;;6.10;4.95;;;11.90;99.90;;;;;;5027559;28;20033;-43
2023/03/29 09:33:04;;;;;;;6.35;5.00;;;12.00;99.90;;;;;;5027878;28;20037;-43
2023/03/29 09:35:33;;;;;;;6.25;4.50;;;12.10;99.90;;;;;;5028848;28;20090;-43
2023/03/29 09:38:00;;;;;;;5.65;4.65;;;12.10;99.90;;;;;;5025919;28;20837;-42
2023/03/29 09:40:37;;;;;;;6.15;4.72;;;12.20;99.90;;;;;;5027893;28;20060;-42
2023/03/29 09:43:03;;;;;;;6.40;4.60;;;12.30;99.90;;;;;;5027379;28;20196;-42
2023/03/29 09:45:30;;;;;;;7.55;4.97;;;12.40;99.90;;;;;;5026620;28;20115;-42
2023/03/29 09:48:08;;;;;;;7.10;4.82;;;12.50;99.90;;;;;;5026183;28;20046;-42
2023/03/29 09:50:41;;;;;;;6.70;5.45;;;12.60;99.90;;;;;;5028509;28;20024;-43
2023/03/29 09:53:07;;;;;;;7.85;4.88;;;12.70;99.90;;;;;;5026435;28;20102;-42
2023/03/29 09:55:35;;;;;;;6.28;5.25;;;12.70;99.90;;;;;;5027156;28;20051;-43
2023/03/29 09:58:14;;;;;;;7.95;5.65;;;12.80;99.90;;;;;;5027585;28;20029;-42
2023/03/29 10:00:40;;;;;;;7.07;5.75;;;12.90;99.90;;;;;;5028328;28;20090;-42
2023/03/29 10:03:06;;;;;;;8.35;6.05;;;12.90;99.90;;;;;;5031252;28;20029;-43
2023/03/29 10:05:36;;;;;;;8.93;5.53;;;12.90;99.90;;;;;;5030986;28;20029;-43
2023/03/29 10:08:13;;;;;;;8.18;5.75;;;12.90;99.90;;;;;;5031350;28;20040;-43
2023/03/29 10:10:40;;;;;;;7.15;5.18;;;13.00;99.90;;;;;;5032083;28;20036;-42
2023/03/29 10:13:25;;;;;;;7.97;6.00;;;13.00;99.90;;;;;;5031206;28;20143;-42
2023/03/29 10:16:02;;;;;;;9.32;6.30;;;13.10;99.90;;;;;;5031057;28;20033;-42
2023/03/29 10:18:30;;;;;;;7.82;5.32;;;13.10;99.90;;;;;;5032106;28;20410;-43
2023/03/29 10:21:02;;;;;;;7.80;5.32;;;13.10;99.90;;;;;;5030428;28;20120;-43
2023/03/29 10:23:36;;;;;;;7.47;4.78;;;13.10;99.90;;;;;;5033005;28;20507;-43
2023/03/29 10:26:05;;;;;;;9.32;6.22;;;13.10;99.90;;;;;;5031466;28;20055;-43
2023/03/29 10:28:33;;;;;;;7.20;5.60;;;13.20;99.90;;;;;;5029944;28;20049;-43
2023/03/29 10:31:00;;;;;;;8.95;5.72;;;13.30;99.90;;;;;;5031021;28;20025;-43
2023/03/29 10:33:32;;;;;;;7.32;6.30;;;13.40;99.90;;;;;;5030473;28;20044;-43
2023/03/29 10:35:58;;;;;;;7.32;5.43;;;13.50;99.90;;;;;;5029142;28;20021;-44
2023/03/29 10:38:27;;;;;;;6.28;5.53;;;13.50;99.90;;;;;;5030963;28;20112;-43
2023/03/29 10:41:01;;;;;;;6.95;5.15;;;13.60;99.90;;;;;;5030478;28;20523;-43
2023/03/29 10:43:34;;;;;;;6.88;5.43;;;13.70;99.90;;;;;;5030847;28;20061;-43
2023/03/29 10:46:21;;;;;;;6.53;5.15;;;13.70;99.90;;;;;;5031003;28;20962;-43
2023/03/29 10:48:49;;;;;;;6.18;5.00;;;13.70;99.90;;;;;;5029782;28;20029;-43
2023/03/29 10:51:17;;;;;;;8.00;5.70;;;13.60;99.90;;;;;;5021783;28;20040;-43
2023/03/29 10:53:43;;;;;;;8.18;6.00;;;13.60;99.90;;;;;;5030138;28;20029;-43
2023/03/29 10:56:13;;;;;;;6.75;5.55;;;13.50;99.90;;;;;;5029368;28;20044;-43
2023/03/29 10:59:14;;;;;;;6.88;5.82;;;13.40;99.90;;;;;;5030442;28;20025;-43
2023/03/29 11:01:58;;;;;;;6.90;5.28;;;13.40;99.90;;;;;;5030743;28;21010;-43
2023/03/29 11:04:29;;;;;;;5.78;5.15;;;13.40;99.90;;;;;;5029890;28;20043;-43
2023/03/29 11:06:58;;;;;;;6.85;5.30;;;13.40;99.90;;;;;;5030123;28;20508;-43
2023/03/29 11:09:42;;;;;;;7.05;4.88;;;13.40;99.90;;;;;;5028031;28;20439;-42
2023/03/29 11:12:17;;;;;;;7.18;4.63;;;13.40;99.90;;;;;;5029537;28;20025;-43
2023/03/29 11:15:16;;;;;;;5.88;4.50;;;13.50;99.90;;;;;;5030202;28;20021;-43
2023/03/29 11:17:49;;;;;;;7.18;5.00;;;13.60;99.90;;;;;;5029161;28;20074;-43
2023/03/29 11:20:27;;;;;;;5.38;4.30;;;13.60;99.90;;;;;;5029918;28;20491;-43
2023/03/29 11:23:02;;;;;;;8.68;4.70;;;13.50;99.90;;;;;;5028696;28;20049;-43
2023/03/29 11:25:44;;;;;;;5.47;4.38;;;13.40;99.90;;;;;;5029657;28;20037;-43
2023/03/29 11:28:34;;;;;;;5.25;4.00;;;13.50;99.90;;;;;;5030203;28;20039;-43
2023/03/29 11:31:32;;;;;;;5.05;4.05;;;13.60;99.90;;;;;;5029484;28;20759;-43
2023/03/29 11:34:25;;;;;;;5.13;3.70;;;13.60;99.90;;;;;;5016216;28;20044;-43
2023/03/29 11:36:57;;;;;;;5.57;4.47;;;13.70;99.90;;;;;;5030646;28;20132;-43
2023/03/29 11:39:38;;;;;;;4.10;3.70;;;13.70;99.90;;;;;;5029788;28;20818;-43
2023/03/29 11:42:34;;;;;;;6.70;4.47;;;13.60;99.90;;;;;;5028782;28;20284;-43
2023/03/29 11:45:03;;;;;;;7.03;4.45;;;13.60;99.90;;;;;;5027404;28;20049;-43
2023/03/29 11:47:39;;;;;;;7.03;4.50;;;13.60;99.90;;;;;;5029560;28;20021;-42
2023/03/29 11:50:26;;;;;;;5.68;4.63;;;13.70;99.90;;;;;;5029181;28;20036;-43
2023/03/29 11:53:00;;;;;;;6.35;4.55;;;13.70;99.90;;;;;;5025296;28;20040;-43
2023/03/29 11:55:33;;;;;;;6.35;4.57;;;13.80;99.90;;;;;;5029309;28;20028;-42
2023/03/29 11:58:27;;;;;;;6.57;4.70;;;13.80;99.90;;;;;;5028516;28;20040;-43
2023/03/29 12:01:37;;;;;;;5.35;4.63;;;13.80;99.90;;;;;;5029238;28;20112;-43
2023/03/29 12:04:14;;;;;;;6.90;4.93;;;13.80;99.90;;;;;;5017076;28;20051;-43
2023/03/29 12:06:51;;;;;;;5.85;4.70;;;13.80;99.90;;;;;;5027991;28;20036;-42
2023/03/29 12:09:35;;;;;;;5.15;4.03;;;13.90;99.90;;;;;;5028438;28;20033;-43
2023/03/29 12:12:11;;;;;;;5.28;4.57;;;14.00;99.90;;;;;;5028004;28;20029;-43
2023/03/29 12:14:55;;;;;;;6.85;5.65;;;14.00;99.90;;;;;;5028491;28;20029;-42
2023/03/29 12:17:46;;;;;;;8.00;6.57;;;14.00;99.90;;;;;;5027901;28;20025;-43
2023/03/29 12:20:27;;;;;;;5.70;5.03;;;13.90;99.90;;;;;;5014257;28;20126;-42
2023/03/29 12:22:53;;;;;;;5.97;5.07;;;13.90;99.90;;;;;;5028310;28;20029;-43
2023/03/29 12:25:25;;;;;;;5.82;4.65;;;13.90;99.90;;;;;;5026872;28;20151;-42
2023/03/29 12:28:09;;;;;;;6.60;5.38;;;13.90;99.90;;;;;;5027549;28;20039;-42
2023/03/29 12:30:50;;;;;;;5.72;4.68;;;13.90;99.90;;;;;;5028506;28;20041;-42
2023/03/29 12:33:35;;;;;;;5.43;4.63;;;13.90;99.90;;;;;;5025789;28;20751;-43
2023/03/29 12:36:42;;;;;;;4.78;4.28;;;14.00;99.90;;;;;;5027815;28;20025;-44
2023/03/29 12:39:19;;;;;;;4.97;4.10;;;14.00;99.90;;;;;;5027672;28;20818;-42
2023/03/29 12:41:47;;;;;;;7.22;4.28;;;14.00;99.90;;;;;;5028040;28;20382;-43
2023/03/29 12:44:20;;;;;;;5.32;3.85;;;14.00;99.90;;;;;;5026859;28;20132;-43
2023/03/29 12:46:53;;;;;;;4.30;3.90;;;14.00;99.90;;;;;;5028452;28;20045;-42
2023/03/29 12:49:34;;;;;;;4.30;3.90;;;14.10;99.90;;;;;;5025530;28;20024;-42
2023/03/29 12:52:13;;;;;;;5.25;4.32;;;14.00;99.90;;;;;;5027930;28;20029;-42
2023/03/29 12:54:39;;;;;;;4.78;4.30;;;14.00;99.90;;;;;;5025990;28;20040;-43
2023/03/29 12:57:43;;;;;;;5.80;3.83;;;13.90;99.90;;;;;;5026411;28;20144;-43
2023/03/29 13:00:52;;;;;;;5.00;3.88;;;13.80;99.90;;;;;;5026090;28;20037;-43
2023/03/29 13:03:26;;;;;;;4.75;3.92;;;13.80;99.90;;;;;;5025769;28;20037;-44
2023/03/29 13:06:04;;;;;;;4.25;3.85;;;13.80;99.90;;;;;;5028007;28;20147;-43
2023/03/29 13:08:58;;;;;;;4.45;4.03;;;13.80;99.90;;;;;;5026694;28;20028;-42
2023/03/29 13:11:38;;;;;;;4.78;4.15;;;13.80;99.90;;;;;;5027136;28;20043;-43
2023/03/29 13:14:18;;;;;;;4.07;3.65;;;13.80;99.90;;;;;;5026808;28;20040;-43
2023/03/29 13:16:43;;;;;;;5.28;4.78;;;13.90;99.90;;;;;;5027241;28;20040;-43